Have a Safe July 4th! 

Flight Track Log - Related Links

Times and Time Zones

All times are in EDT time to prevent confusion due to time zone crossing. See the CES2827 flight status page for this flight to view local times or setup timezone preferences in your user account.

Time Position Orientation Groundspeed Altitude Reporting Facility
EDT Latitude Longitude Course Direction KTS MPH feet Rate Location/Type
Sat 08:19:00 AM 23.4428 109.8722 185° South  Level Estimated
Sat 08:20:00 AM 23.3494 109.8636 185° South  Level Estimated
Sat 08:21:00 AM 23.2559 109.8549 185° South  Level Estimated
Sat 08:22:00 AM 23.1625 109.8463 185° South  Level Estimated
Sat 08:23:00 AM 23.0690 109.8377 185° South  Level Estimated
Sat 08:24:00 AM 22.9756 109.8291 185° South  Level Estimated
Sat 08:25:00 AM 22.8822 109.8205 185° South  Level Estimated
Sat 08:26:00 AM 22.7887 109.8119 185° South  Level Estimated
Sat 08:27:00 AM 22.6953 109.8033 185° South  Level Estimated
Sat 08:28:00 AM 22.6018 109.7947 185° South  Level Estimated
Sat 08:29:00 AM 22.5084 109.7862 185° South  Level Estimated
Sat 08:30:00 AM 22.4149 109.7776 185° South  Level Estimated
Sat 08:31:00 AM 22.3215 109.7691 185° South  Level Estimated
Sat 08:32:00 AM 22.2280 109.7606 185° South  Level Estimated
Sat 08:33:00 AM 22.1346 109.7521 185° South  Level Estimated
Sat 08:34:00 AM 22.0411 109.7436 185° South  Level Estimated
Sat 08:35:00 AM 21.9477 109.7351 185° South  Level Estimated
Sat 08:36:00 AM 21.8542 109.7266 185° South  Level Estimated
Sat 08:37:00 AM 21.7608 109.7182 185° South  Level Estimated
Sat 08:38:00 AM 21.6673 109.7097 185° South  Level Estimated
Sat 08:39:00 AM 21.5739 109.7013 185° South  Level Estimated
Sat 08:40:00 AM 21.4804 109.6928 185° South  Level Estimated
Sat 08:41:00 AM 21.3870 109.6844 185° South  Level Estimated
Sat 08:42:00 AM 21.2935 109.6760 185° South  Level Estimated
Sat 08:43:00 AM 21.2001 109.6676 185° South  Level Estimated
Sat 08:44:00 AM 21.1066 109.6592 185° South  Level Estimated
Sat 08:45:00 AM 21.0132 109.6508 185° South  Level Estimated
Sat 08:46:00 AM 20.9197 109.6425 185° South  Level Estimated
Sat 08:47:00 AM 20.8263 109.6341 185° South  Level Estimated
Sat 08:48:00 AM 20.7328 109.6258 185° South  Level Estimated
Sat 08:49:00 AM 20.6394 109.6175 185° South  Level Estimated
Sat 08:50:00 AM 20.5459 109.6091 185° South  Level Estimated
Sat 08:51:00 AM 20.4524 109.6008 185° South  Level Estimated
Sat 08:52:00 AM 20.3590 109.5925 185° South  Level Estimated
Sat 08:53:00 AM 20.2655 109.5842 185° South  Level Estimated
Sat 08:54:00 AM 20.1721 109.5760 185° South  Level Estimated
Sat 08:55:00 AM 20.0605 109.5661 185° South  Level Estimated
Sat 08:56:00 AM 19.9490 109.5562 185° South  Level Estimated
Sat 08:57:00 AM 19.8374 109.5464 185° South  Level Estimated
Sat 08:58:00 AM 19.7259 109.5365 185° South  Level Estimated
Sat 08:59:00 AM 19.6143 109.5267 185° South  Level Estimated
Sat 09:00:00 AM 19.5028 109.5169 185° South  Level Estimated
Sat 09:01:00 AM 19.3912 109.5071 185° South  Level Estimated
Sat 09:02:00 AM 19.2797 109.4973 185° South  Level Estimated
Sat 09:03:00 AM 19.1681 109.4876 185° South  Level Estimated
Sat 09:04:00 AM 19.0566 109.4778 185° South  Level Estimated
Sat 09:05:00 AM 18.9450 109.4681 185° South  Level Estimated
Sat 09:06:00 AM 18.8335 109.4584 185° South  Level Estimated
Sat 09:07:00 AM 18.7219 109.4486 185° South  Level Estimated
Sat 09:08:00 AM 18.6104 109.4389 185° South  Level Estimated
Sat 09:09:00 AM 18.4988 109.4293 185° South  Level Estimated
Sat 09:10:00 AM 18.3873 109.4196 185° South  Level Estimated
Sat 09:11:00 AM 18.3029 109.4123 185° South  Level Estimated
Sat 09:12:00 AM 18.3029 109.4123 148° Southeast  Level Estimated
Sat 09:13:00 AM 18.3029 109.4123 148° Southeast  Level Estimated
Sat 09:14:00 AM 18.3029 109.4123 148° Southeast  Level Estimated
Sat 09:15:00 AM 18.3029 109.4123 148° Southeast  Level Estimated
Sat 09:16:00 AM 18.3029 109.4123 148° Southeast  Level Estimated
Sat 09:17:00 AM 18.3029 109.4123 148° Southeast  Level Estimated
Sat 09:18:00 AM 18.3029 109.4123 148° Southeast  Level Estimated

Login

Don't have an account? Register now (free) for customized features, flight alerts, and more!